sensor_id;sensor_type;location;lat;lon;timestamp;P1;durP1;ratioP1;P2;durP2;ratioP2
12363;SDS011;6246;50.826;4.712;2022-08-21T00:01:55;7.63;;;2.90;;
12363;SDS011;6246;50.826;4.712;2022-08-21T00:04:21;4.83;;;2.63;;
12363;SDS011;6246;50.826;4.712;2022-08-21T00:06:47;5.03;;;2.47;;
12363;SDS011;6246;50.826;4.712;2022-08-21T00:09:13;4.77;;;2.70;;
12363;SDS011;6246;50.826;4.712;2022-08-21T00:11:39;6.13;;;2.87;;
12363;SDS011;6246;50.826;4.712;2022-08-21T00:14:06;4.60;;;2.57;;
12363;SDS011;6246;50.826;4.712;2022-08-21T00:16:32;4.73;;;2.30;;
12363;SDS011;6246;50.826;4.712;2022-08-21T00:18:58;5.10;;;2.50;;
12363;SDS011;6246;50.826;4.712;2022-08-21T00:21:24;7.23;;;2.70;;
12363;SDS011;6246;50.826;4.712;2022-08-21T00:23:51;4.17;;;2.77;;
12363;SDS011;6246;50.826;4.712;2022-08-21T00:26:17;4.47;;;2.50;;
12363;SDS011;6246;50.826;4.712;2022-08-21T00:28:43;4.43;;;2.90;;
12363;SDS011;6246;50.826;4.712;2022-08-21T00:31:10;6.07;;;2.97;;
12363;SDS011;6246;50.826;4.712;2022-08-21T00:33:36;4.00;;;2.70;;
12363;SDS011;6246;50.826;4.712;2022-08-21T00:36:03;4.40;;;2.63;;
12363;SDS011;6246;50.826;4.712;2022-08-21T00:38:29;4.60;;;2.87;;
12363;SDS011;6246;50.826;4.712;2022-08-21T00:40:57;6.77;;;2.73;;
12363;SDS011;6246;50.826;4.712;2022-08-21T00:43:25;6.13;;;2.63;;
12363;SDS011;6246;50.826;4.712;2022-08-21T00:45:53;5.43;;;2.57;;
12363;SDS011;6246;50.826;4.712;2022-08-21T00:48:19;6.67;;;3.17;;
12363;SDS011;6246;50.826;4.712;2022-08-21T00:50:46;8.33;;;3.00;;
12363;SDS011;6246;50.826;4.712;2022-08-21T00:53:14;5.13;;;2.37;;
12363;SDS011;6246;50.826;4.712;2022-08-21T00:55:40;6.70;;;3.07;;
12363;SDS011;6246;50.826;4.712;2022-08-21T00:58:07;5.37;;;2.30;;
12363;SDS011;6246;50.826;4.712;2022-08-21T01:00:36;5.13;;;2.77;;
12363;SDS011;6246;50.826;4.712;2022-08-21T01:03:05;6.90;;;3.00;;
12363;SDS011;6246;50.826;4.712;2022-08-21T01:05:31;5.00;;;2.70;;
12363;SDS011;6246;50.826;4.712;2022-08-21T01:07:57;3.97;;;2.17;;
12363;SDS011;6246;50.826;4.712;2022-08-21T01:10:24;5.23;;;2.63;;
12363;SDS011;6246;50.826;4.712;2022-08-21T01:12:51;6.10;;;2.63;;
12363;SDS011;6246;50.826;4.712;2022-08-21T01:15:17;5.67;;;2.90;;
12363;SDS011;6246;50.826;4.712;2022-08-21T01:17:45;3.53;;;2.43;;
12363;SDS011;6246;50.826;4.712;2022-08-21T01:20:11;4.40;;;2.63;;
12363;SDS011;6246;50.826;4.712;2022-08-21T01:22:38;4.23;;;2.23;;
12363;SDS011;6246;50.826;4.712;2022-08-21T01:25:04;5.43;;;2.33;;
12363;SDS011;6246;50.826;4.712;2022-08-21T01:27:30;3.70;;;2.40;;
12363;SDS011;6246;50.826;4.712;2022-08-21T01:29:58;3.57;;;2.37;;
12363;SDS011;6246;50.826;4.712;2022-08-21T01:32:25;3.73;;;2.77;;
12363;SDS011;6246;50.826;4.712;2022-08-21T01:34:52;7.80;;;2.80;;
12363;SDS011;6246;50.826;4.712;2022-08-21T01:37:19;6.50;;;3.03;;
12363;SDS011;6246;50.826;4.712;2022-08-21T01:39:45;6.40;;;2.90;;
12363;SDS011;6246;50.826;4.712;2022-08-21T01:42:11;5.37;;;2.70;;
12363;SDS011;6246;50.826;4.712;2022-08-21T01:44:37;4.03;;;3.03;;
12363;SDS011;6246;50.826;4.712;2022-08-21T01:47:05;5.07;;;2.40;;
12363;SDS011;6246;50.826;4.712;2022-08-21T01:49:32;5.83;;;2.90;;
12363;SDS011;6246;50.826;4.712;2022-08-21T01:51:58;5.90;;;2.90;;
12363;SDS011;6246;50.826;4.712;2022-08-21T01:54:24;4.30;;;2.63;;
12363;SDS011;6246;50.826;4.712;2022-08-21T01:56:51;5.07;;;2.50;;
12363;SDS011;6246;50.826;4.712;2022-08-21T01:59:18;5.37;;;2.53;;
12363;SDS011;6246;50.826;4.712;2022-08-21T02:01:44;6.30;;;2.50;;
12363;SDS011;6246;50.826;4.712;2022-08-21T02:04:10;4.17;;;2.30;;
12363;SDS011;6246;50.826;4.712;2022-08-21T02:06:37;6.40;;;3.23;;
12363;SDS011;6246;50.826;4.712;2022-08-21T02:09:04;12.17;;;2.83;;
12363;SDS011;6246;50.826;4.712;2022-08-21T02:11:31;5.63;;;3.00;;
12363;SDS011;6246;50.826;4.712;2022-08-21T02:13:57;5.73;;;2.63;;
12363;SDS011;6246;50.826;4.712;2022-08-21T02:16:23;4.20;;;2.43;;
12363;SDS011;6246;50.826;4.712;2022-08-21T02:18:49;6.17;;;3.07;;
12363;SDS011;6246;50.826;4.712;2022-08-21T02:21:15;3.17;;;2.13;;
12363;SDS011;6246;50.826;4.712;2022-08-21T02:23:41;4.53;;;2.13;;
12363;SDS011;6246;50.826;4.712;2022-08-21T02:26:07;5.67;;;2.67;;
12363;SDS011;6246;50.826;4.712;2022-08-21T02:28:34;5.03;;;2.67;;
12363;SDS011;6246;50.826;4.712;2022-08-21T02:31:00;5.37;;;2.33;;
12363;SDS011;6246;50.826;4.712;2022-08-21T02:33:26;4.40;;;2.67;;
12363;SDS011;6246;50.826;4.712;2022-08-21T02:35:53;5.57;;;2.90;;
12363;SDS011;6246;50.826;4.712;2022-08-21T02:38:21;8.50;;;3.13;;
12363;SDS011;6246;50.826;4.712;2022-08-21T02:40:48;5.23;;;2.30;;
12363;SDS011;6246;50.826;4.712;2022-08-21T02:43:14;4.57;;;2.80;;
12363;SDS011;6246;50.826;4.712;2022-08-21T02:45:41;4.63;;;2.50;;
12363;SDS011;6246;50.826;4.712;2022-08-21T02:48:08;5.83;;;2.50;;
12363;SDS011;6246;50.826;4.712;2022-08-21T02:50:36;3.73;;;2.20;;
12363;SDS011;6246;50.826;4.712;2022-08-21T02:53:04;6.00;;;2.43;;
12363;SDS011;6246;50.826;4.712;2022-08-21T02:55:32;6.10;;;2.47;;
12363;SDS011;6246;50.826;4.712;2022-08-21T02:57:58;5.67;;;2.60;;
12363;SDS011;6246;50.826;4.712;2022-08-21T03:00:25;5.23;;;2.90;;
12363;SDS011;6246;50.826;4.712;2022-08-21T03:02:52;5.70;;;2.37;;
12363;SDS011;6246;50.826;4.712;2022-08-21T03:05:18;4.77;;;2.40;;
12363;SDS011;6246;50.826;4.712;2022-08-21T03:07:45;2.93;;;2.10;;
12363;SDS011;6246;50.826;4.712;2022-08-21T03:10:12;4.47;;;2.50;;
12363;SDS011;6246;50.826;4.712;2022-08-21T03:12:38;3.37;;;2.30;;
12363;SDS011;6246;50.826;4.712;2022-08-21T03:15:05;3.90;;;2.73;;
12363;SDS011;6246;50.826;4.712;2022-08-21T03:17:32;7.17;;;2.53;;
12363;SDS011;6246;50.826;4.712;2022-08-21T03:19:58;5.53;;;2.43;;
12363;SDS011;6246;50.826;4.712;2022-08-21T03:22:25;5.60;;;2.50;;
12363;SDS011;6246;50.826;4.712;2022-08-21T03:24:51;3.63;;;2.30;;
12363;SDS011;6246;50.826;4.712;2022-08-21T03:27:17;4.57;;;2.30;;
12363;SDS011;6246;50.826;4.712;2022-08-21T03:29:43;5.47;;;2.53;;
12363;SDS011;6246;50.826;4.712;2022-08-21T03:32:09;3.17;;;2.37;;
12363;SDS011;6246;50.826;4.712;2022-08-21T03:34:35;3.83;;;2.47;;
12363;SDS011;6246;50.826;4.712;2022-08-21T03:37:02;6.77;;;2.30;;
12363;SDS011;6246;50.826;4.712;2022-08-21T03:39:28;4.03;;;2.40;;
12363;SDS011;6246;50.826;4.712;2022-08-21T03:41:54;5.43;;;2.27;;
12363;SDS011;6246;50.826;4.712;2022-08-21T03:44:20;6.80;;;2.80;;
12363;SDS011;6246;50.826;4.712;2022-08-21T03:46:46;6.23;;;2.07;;
12363;SDS011;6246;50.826;4.712;2022-08-21T03:49:13;3.63;;;2.60;;
12363;SDS011;6246;50.826;4.712;2022-08-21T03:51:40;3.23;;;2.30;;
12363;SDS011;6246;50.826;4.712;2022-08-21T03:54:06;5.37;;;2.37;;
12363;SDS011;6246;50.826;4.712;2022-08-21T03:56:31;5.63;;;2.20;;
12363;SDS011;6246;50.826;4.712;2022-08-21T03:58:58;2.60;;;1.90;;
12363;SDS011;6246;50.826;4.712;2022-08-21T04:01:24;5.20;;;2.80;;
12363;SDS011;6246;50.826;4.712;2022-08-21T04:03:50;4.20;;;2.23;;
12363;SDS011;6246;50.826;4.712;2022-08-21T04:06:16;3.13;;;2.27;;
12363;SDS011;6246;50.826;4.712;2022-08-21T04:08:42;3.73;;;2.20;;
12363;SDS011;6246;50.826;4.712;2022-08-21T04:11:08;4.10;;;2.03;;
12363;SDS011;6246;50.826;4.712;2022-08-21T04:13:37;4.63;;;1.93;;
12363;SDS011;6246;50.826;4.712;2022-08-21T04:16:04;4.23;;;2.23;;
12363;SDS011;6246;50.826;4.712;2022-08-21T04:18:30;4.30;;;2.00;;
12363;SDS011;6246;50.826;4.712;2022-08-21T04:20:57;4.33;;;2.17;;
12363;SDS011;6246;50.826;4.712;2022-08-21T04:23:23;5.00;;;2.10;;
12363;SDS011;6246;50.826;4.712;2022-08-21T04:25:49;4.07;;;2.03;;
12363;SDS011;6246;50.826;4.712;2022-08-21T04:28:15;6.10;;;2.50;;
12363;SDS011;6246;50.826;4.712;2022-08-21T04:30:41;5.70;;;2.77;;
12363;SDS011;6246;50.826;4.712;2022-08-21T04:33:08;3.73;;;1.90;;
12363;SDS011;6246;50.826;4.712;2022-08-21T04:35:34;4.00;;;2.20;;
12363;SDS011;6246;50.826;4.712;2022-08-21T04:37:59;3.50;;;2.10;;
12363;SDS011;6246;50.826;4.712;2022-08-21T04:40:26;2.90;;;2.03;;
12363;SDS011;6246;50.826;4.712;2022-08-21T04:42:54;4.90;;;2.30;;
12363;SDS011;6246;50.826;4.712;2022-08-21T04:45:39;4.13;;;2.10;;
12363;SDS011;6246;50.826;4.712;2022-08-21T04:48:07;5.40;;;2.00;;
12363;SDS011;6246;50.826;4.712;2022-08-21T04:50:41;5.53;;;2.00;;
12363;SDS011;6246;50.826;4.712;2022-08-21T04:53:10;4.87;;;2.27;;
12363;SDS011;6246;50.826;4.712;2022-08-21T04:55:37;3.40;;;2.00;;
12363;SDS011;6246;50.826;4.712;2022-08-21T04:58:07;10.00;;;2.50;;
12363;SDS011;6246;50.826;4.712;2022-08-21T05:00:34;6.33;;;2.60;;
12363;SDS011;6246;50.826;4.712;2022-08-21T05:03:01;6.67;;;2.30;;
12363;SDS011;6246;50.826;4.712;2022-08-21T05:05:28;5.50;;;2.53;;
12363;SDS011;6246;50.826;4.712;2022-08-21T05:07:54;4.63;;;2.13;;
12363;SDS011;6246;50.826;4.712;2022-08-21T05:10:21;6.77;;;2.30;;
12363;SDS011;6246;50.826;4.712;2022-08-21T05:12:47;3.80;;;2.20;;
12363;SDS011;6246;50.826;4.712;2022-08-21T05:15:14;4.03;;;2.17;;
12363;SDS011;6246;50.826;4.712;2022-08-21T05:17:41;5.63;;;2.33;;
12363;SDS011;6246;50.826;4.712;2022-08-21T05:20:08;7.00;;;2.43;;
12363;SDS011;6246;50.826;4.712;2022-08-21T05:22:34;4.07;;;2.10;;
12363;SDS011;6246;50.826;4.712;2022-08-21T05:25:00;4.10;;;2.03;;
12363;SDS011;6246;50.826;4.712;2022-08-21T05:27:26;3.00;;;2.20;;
12363;SDS011;6246;50.826;4.712;2022-08-21T05:29:54;4.40;;;1.97;;
12363;SDS011;6246;50.826;4.712;2022-08-21T05:32:20;3.20;;;2.20;;
12363;SDS011;6246;50.826;4.712;2022-08-21T05:34:46;5.77;;;2.07;;
12363;SDS011;6246;50.826;4.712;2022-08-21T05:37:12;5.27;;;1.93;;
12363;SDS011;6246;50.826;4.712;2022-08-21T05:39:38;7.87;;;2.50;;
12363;SDS011;6246;50.826;4.712;2022-08-21T05:42:05;4.47;;;2.20;;
12363;SDS011;6246;50.826;4.712;2022-08-21T05:44:31;4.37;;;2.10;;
12363;SDS011;6246;50.826;4.712;2022-08-21T05:47:07;7.57;;;2.63;;
12363;SDS011;6246;50.826;4.712;2022-08-21T05:49:33;3.10;;;2.20;;
12363;SDS011;6246;50.826;4.712;2022-08-21T05:51:59;6.43;;;2.53;;
12363;SDS011;6246;50.826;4.712;2022-08-21T05:54:26;4.80;;;2.10;;
12363;SDS011;6246;50.826;4.712;2022-08-21T05:56:52;3.03;;;2.37;;
12363;SDS011;6246;50.826;4.712;2022-08-21T05:59:18;3.27;;;1.90;;
12363;SDS011;6246;50.826;4.712;2022-08-21T06:01:44;5.93;;;3.00;;
12363;SDS011;6246;50.826;4.712;2022-08-21T06:04:10;6.70;;;2.20;;
12363;SDS011;6246;50.826;4.712;2022-08-21T06:06:37;4.33;;;2.13;;
12363;SDS011;6246;50.826;4.712;2022-08-21T06:09:03;5.83;;;2.27;;
12363;SDS011;6246;50.826;4.712;2022-08-21T06:11:29;4.17;;;2.50;;
12363;SDS011;6246;50.826;4.712;2022-08-21T06:13:55;5.83;;;2.53;;
12363;SDS011;6246;50.826;4.712;2022-08-21T06:16:21;4.50;;;2.00;;
12363;SDS011;6246;50.826;4.712;2022-08-21T06:18:47;5.77;;;2.80;;
12363;SDS011;6246;50.826;4.712;2022-08-21T06:21:14;6.07;;;2.23;;
12363;SDS011;6246;50.826;4.712;2022-08-21T06:23:40;5.17;;;1.93;;
12363;SDS011;6246;50.826;4.712;2022-08-21T06:26:07;3.30;;;2.10;;
12363;SDS011;6246;50.826;4.712;2022-08-21T06:28:33;5.50;;;2.30;;
12363;SDS011;6246;50.826;4.712;2022-08-21T06:31:00;4.97;;;2.00;;
12363;SDS011;6246;50.826;4.712;2022-08-21T06:33:26;5.30;;;2.13;;
12363;SDS011;6246;50.826;4.712;2022-08-21T06:35:52;5.00;;;2.50;;
12363;SDS011;6246;50.826;4.712;2022-08-21T06:38:18;3.43;;;2.10;;
12363;SDS011;6246;50.826;4.712;2022-08-21T06:40:44;6.23;;;2.20;;
12363;SDS011;6246;50.826;4.712;2022-08-21T06:43:11;4.13;;;2.13;;
12363;SDS011;6246;50.826;4.712;2022-08-21T06:45:38;4.57;;;2.33;;
12363;SDS011;6246;50.826;4.712;2022-08-21T06:48:04;6.23;;;2.67;;
12363;SDS011;6246;50.826;4.712;2022-08-21T06:50:32;4.97;;;2.03;;
12363;SDS011;6246;50.826;4.712;2022-08-21T06:53:03;5.40;;;2.07;;
12363;SDS011;6246;50.826;4.712;2022-08-21T06:55:29;4.10;;;2.10;;
12363;SDS011;6246;50.826;4.712;2022-08-21T06:57:55;6.03;;;1.83;;
12363;SDS011;6246;50.826;4.712;2022-08-21T07:00:22;5.60;;;2.13;;
12363;SDS011;6246;50.826;4.712;2022-08-21T07:02:48;5.27;;;2.40;;
12363;SDS011;6246;50.826;4.712;2022-08-21T07:05:14;8.27;;;2.77;;
12363;SDS011;6246;50.826;4.712;2022-08-21T07:07:40;6.97;;;2.30;;
12363;SDS011;6246;50.826;4.712;2022-08-21T07:10:06;3.73;;;2.10;;
12363;SDS011;6246;50.826;4.712;2022-08-21T07:12:32;4.87;;;2.40;;
12363;SDS011;6246;50.826;4.712;2022-08-21T07:14:58;4.90;;;2.50;;
12363;SDS011;6246;50.826;4.712;2022-08-21T07:17:24;5.13;;;1.83;;
12363;SDS011;6246;50.826;4.712;2022-08-21T07:19:50;4.70;;;2.00;;
12363;SDS011;6246;50.826;4.712;2022-08-21T07:22:17;5.33;;;1.93;;
12363;SDS011;6246;50.826;4.712;2022-08-21T07:24:44;3.40;;;1.93;;
12363;SDS011;6246;50.826;4.712;2022-08-21T07:27:10;7.13;;;2.03;;
12363;SDS011;6246;50.826;4.712;2022-08-21T07:29:36;5.77;;;2.43;;
12363;SDS011;6246;50.826;4.712;2022-08-21T07:32:02;4.77;;;2.20;;
12363;SDS011;6246;50.826;4.712;2022-08-21T07:34:28;7.53;;;2.30;;
12363;SDS011;6246;50.826;4.712;2022-08-21T07:36:55;4.97;;;2.20;;
12363;SDS011;6246;50.826;4.712;2022-08-21T07:39:20;4.97;;;1.90;;
12363;SDS011;6246;50.826;4.712;2022-08-21T07:41:47;6.63;;;2.40;;
12363;SDS011;6246;50.826;4.712;2022-08-21T07:44:13;4.90;;;2.23;;
12363;SDS011;6246;50.826;4.712;2022-08-21T07:46:38;5.30;;;2.40;;
12363;SDS011;6246;50.826;4.712;2022-08-21T07:49:05;5.33;;;2.17;;
12363;SDS011;6246;50.826;4.712;2022-08-21T07:51:31;6.63;;;2.07;;
12363;SDS011;6246;50.826;4.712;2022-08-21T07:53:58;7.27;;;2.23;;
12363;SDS011;6246;50.826;4.712;2022-08-21T07:56:25;5.83;;;1.90;;
12363;SDS011;6246;50.826;4.712;2022-08-21T07:58:51;3.10;;;1.77;;
12363;SDS011;6246;50.826;4.712;2022-08-21T08:01:17;7.03;;;2.50;;
12363;SDS011;6246;50.826;4.712;2022-08-21T08:03:43;6.10;;;2.17;;
12363;SDS011;6246;50.826;4.712;2022-08-21T08:06:10;2.60;;;2.00;;
12363;SDS011;6246;50.826;4.712;2022-08-21T08:08:38;4.43;;;1.87;;
12363;SDS011;6246;50.826;4.712;2022-08-21T08:11:04;5.40;;;2.07;;
12363;SDS011;6246;50.826;4.712;2022-08-21T08:13:30;4.27;;;1.77;;
12363;SDS011;6246;50.826;4.712;2022-08-21T08:15:57;4.57;;;1.80;;
12363;SDS011;6246;50.826;4.712;2022-08-21T08:18:23;6.10;;;1.77;;
12363;SDS011;6246;50.826;4.712;2022-08-21T08:20:49;5.77;;;1.80;;
12363;SDS011;6246;50.826;4.712;2022-08-21T08:23:15;4.20;;;1.70;;
12363;SDS011;6246;50.826;4.712;2022-08-21T08:25:41;5.97;;;2.20;;
12363;SDS011;6246;50.826;4.712;2022-08-21T08:28:07;5.03;;;2.03;;
12363;SDS011;6246;50.826;4.712;2022-08-21T08:30:33;6.20;;;2.17;;
12363;SDS011;6246;50.826;4.712;2022-08-21T08:32:59;5.43;;;2.23;;
12363;SDS011;6246;50.826;4.712;2022-08-21T08:35:26;4.10;;;1.63;;
12363;SDS011;6246;50.826;4.712;2022-08-21T08:37:53;4.83;;;2.17;;
12363;SDS011;6246;50.826;4.712;2022-08-21T08:40:25;4.30;;;1.80;;
12363;SDS011;6246;50.826;4.712;2022-08-21T08:42:55;5.33;;;2.43;;
12363;SDS011;6246;50.826;4.712;2022-08-21T08:45:21;4.83;;;1.97;;
12363;SDS011;6246;50.826;4.712;2022-08-21T08:47:58;6.50;;;2.00;;
12363;SDS011;6246;50.826;4.712;2022-08-21T08:53:02;4.67;;;1.83;;
12363;SDS011;6246;50.826;4.712;2022-08-21T08:55:34;6.33;;;2.40;;
12363;SDS011;6246;50.826;4.712;2022-08-21T08:58:00;3.97;;;2.03;;
12363;SDS011;6246;50.826;4.712;2022-08-21T09:00:28;5.83;;;2.37;;
12363;SDS011;6246;50.826;4.712;2022-08-21T09:02:56;5.50;;;2.10;;
12363;SDS011;6246;50.826;4.712;2022-08-21T09:10:45;3.70;;;1.70;;
12363;SDS011;6246;50.826;4.712;2022-08-21T09:16:03;3.53;;;1.63;;
12363;SDS011;6246;50.826;4.712;2022-08-21T09:21:07;4.93;;;2.00;;
12363;SDS011;6246;50.826;4.712;2022-08-21T09:26:20;6.70;;;2.33;;
12363;SDS011;6246;50.826;4.712;2022-08-21T09:28:51;12.43;;;2.50;;
12363;SDS011;6246;50.826;4.712;2022-08-21T09:31:28;9.27;;;2.23;;
12363;SDS011;6246;50.826;4.712;2022-08-21T09:34:02;6.10;;;2.07;;
12363;SDS011;6246;50.826;4.712;2022-08-21T09:36:42;5.73;;;1.50;;
12363;SDS011;6246;50.826;4.712;2022-08-21T09:39:09;8.43;;;2.37;;
12363;SDS011;6246;50.826;4.712;2022-08-21T09:41:36;7.88;;;2.03;;
12363;SDS011;6246;50.826;4.712;2022-08-21T09:44:03;7.90;;;2.80;;
12363;SDS011;6246;50.826;4.712;2022-08-21T09:46:29;5.90;;;1.83;;
12363;SDS011;6246;50.826;4.712;2022-08-21T09:48:57;10.47;;;2.37;;
12363;SDS011;6246;50.826;4.712;2022-08-21T09:51:28;12.77;;;2.73;;
12363;SDS011;6246;50.826;4.712;2022-08-21T09:53:56;10.70;;;2.65;;
12363;SDS011;6246;50.826;4.712;2022-08-21T09:56:27;7.38;;;2.67;;
12363;SDS011;6246;50.826;4.712;2022-08-21T10:01:46;11.63;;;2.63;;
12363;SDS011;6246;50.826;4.712;2022-08-21T10:04:13;7.65;;;2.13;;
12363;SDS011;6246;50.826;4.712;2022-08-21T10:06:39;8.82;;;2.72;;
12363;SDS011;6246;50.826;4.712;2022-08-21T10:11:31;7.63;;;2.47;;
12363;SDS011;6246;50.826;4.712;2022-08-21T10:32:03;11.68;;;3.40;;
12363;SDS011;6246;50.826;4.712;2022-08-21T10:34:34;10.38;;;2.75;;
12363;SDS011;6246;50.826;4.712;2022-08-21T10:42:28;11.40;;;3.78;;
12363;SDS011;6246;50.826;4.712;2022-08-21T10:48:04;9.65;;;3.55;;
12363;SDS011;6246;50.826;4.712;2022-08-21T10:50:30;14.02;;;3.38;;
12363;SDS011;6246;50.826;4.712;2022-08-21T11:03:52;9.32;;;3.83;;
12363;SDS011;6246;50.826;4.712;2022-08-21T11:06:00;10.63;;;3.30;;
12363;SDS011;6246;50.826;4.712;2022-08-21T11:08:44;20.20;;;4.43;;
12363;SDS011;6246;50.826;4.712;2022-08-21T11:11:16;19.83;;;3.70;;
12363;SDS011;6246;50.826;4.712;2022-08-21T11:13:55;11.13;;;3.70;;
12363;SDS011;6246;50.826;4.712;2022-08-21T11:16:36;9.75;;;3.35;;
12363;SDS011;6246;50.826;4.712;2022-08-21T11:21:35;10.75;;;3.22;;
12363;SDS011;6246;50.826;4.712;2022-08-21T11:24:17;8.38;;;3.25;;
12363;SDS011;6246;50.826;4.712;2022-08-21T11:29:16;14.32;;;2.80;;
12363;SDS011;6246;50.826;4.712;2022-08-21T11:32:01;9.18;;;3.60;;
12363;SDS011;6246;50.826;4.712;2022-08-21T11:37:22;11.02;;;3.10;;
12363;SDS011;6246;50.826;4.712;2022-08-21T11:39:56;13.90;;;3.25;;
12363;SDS011;6246;50.826;4.712;2022-08-21T11:45:08;9.38;;;3.28;;
12363;SDS011;6246;50.826;4.712;2022-08-21T11:52:41;9.60;;;2.95;;
12363;SDS011;6246;50.826;4.712;2022-08-21T11:55:16;5.53;;;2.60;;
12363;SDS011;6246;50.826;4.712;2022-08-21T12:00:12;19.75;;;4.50;;
12363;SDS011;6246;50.826;4.712;2022-08-21T12:02:43;10.73;;;3.90;;
12363;SDS011;6246;50.826;4.712;2022-08-21T12:05:21;7.93;;;3.03;;
12363;SDS011;6246;50.826;4.712;2022-08-21T12:07:48;8.57;;;3.80;;
12363;SDS011;6246;50.826;4.712;2022-08-21T12:10:30;10.65;;;3.47;;
12363;SDS011;6246;50.826;4.712;2022-08-21T12:13:05;7.47;;;3.25;;
12363;SDS011;6246;50.826;4.712;2022-08-21T12:15:34;8.80;;;3.65;;
12363;SDS011;6246;50.826;4.712;2022-08-21T12:18:05;6.63;;;3.50;;
12363;SDS011;6246;50.826;4.712;2022-08-21T12:20:36;8.45;;;3.35;;
12363;SDS011;6246;50.826;4.712;2022-08-21T12:25:38;7.18;;;3.10;;
12363;SDS011;6246;50.826;4.712;2022-08-21T12:28:08;9.45;;;3.67;;
12363;SDS011;6246;50.826;4.712;2022-08-21T12:30:36;5.97;;;3.10;;
12363;SDS011;6246;50.826;4.712;2022-08-21T12:33:05;7.30;;;3.50;;
12363;SDS011;6246;50.826;4.712;2022-08-21T12:35:38;8.90;;;3.58;;
12363;SDS011;6246;50.826;4.712;2022-08-21T12:38:15;8.60;;;3.25;;
12363;SDS011;6246;50.826;4.712;2022-08-21T12:40:54;7.25;;;2.70;;
12363;SDS011;6246;50.826;4.712;2022-08-21T12:43:25;8.18;;;2.85;;
12363;SDS011;6246;50.826;4.712;2022-08-21T12:45:52;7.38;;;2.75;;
12363;SDS011;6246;50.826;4.712;2022-08-21T12:51:08;8.25;;;3.22;;
12363;SDS011;6246;50.826;4.712;2022-08-21T12:53:46;10.60;;;3.05;;
12363;SDS011;6246;50.826;4.712;2022-08-21T12:56:14;11.23;;;3.20;;
12363;SDS011;6246;50.826;4.712;2022-08-21T12:58:43;6.50;;;2.65;;
12363;SDS011;6246;50.826;4.712;2022-08-21T13:01:21;9.00;;;3.42;;
12363;SDS011;6246;50.826;4.712;2022-08-21T13:03:49;9.73;;;3.08;;
12363;SDS011;6246;50.826;4.712;2022-08-21T13:06:17;8.38;;;2.63;;
12363;SDS011;6246;50.826;4.712;2022-08-21T13:08:45;6.60;;;2.72;;
12363;SDS011;6246;50.826;4.712;2022-08-21T13:11:13;8.05;;;3.10;;
12363;SDS011;6246;50.826;4.712;2022-08-21T13:13:40;11.48;;;3.00;;
12363;SDS011;6246;50.826;4.712;2022-08-21T13:16:06;5.57;;;2.33;;
12363;SDS011;6246;50.826;4.712;2022-08-21T13:18:34;6.43;;;2.20;;
12363;SDS011;6246;50.826;4.712;2022-08-21T13:21:07;7.80;;;2.47;;
12363;SDS011;6246;50.826;4.712;2022-08-21T13:23:35;7.55;;;2.70;;
12363;SDS011;6246;50.826;4.712;2022-08-21T13:26:11;9.50;;;3.17;;
12363;SDS011;6246;50.826;4.712;2022-08-21T13:28:37;7.30;;;2.45;;
12363;SDS011;6246;50.826;4.712;2022-08-21T13:31:05;6.75;;;2.75;;
12363;SDS011;6246;50.826;4.712;2022-08-21T13:33:33;6.88;;;2.33;;
12363;SDS011;6246;50.826;4.712;2022-08-21T13:38:29;7.28;;;2.15;;
12363;SDS011;6246;50.826;4.712;2022-08-21T13:40:56;8.65;;;2.42;;
12363;SDS011;6246;50.826;4.712;2022-08-21T13:43:27;6.28;;;2.63;;
12363;SDS011;6246;50.826;4.712;2022-08-21T13:45:54;7.72;;;2.30;;
12363;SDS011;6246;50.826;4.712;2022-08-21T13:48:21;10.27;;;2.90;;
12363;SDS011;6246;50.826;4.712;2022-08-21T13:50:48;8.80;;;2.53;;
12363;SDS011;6246;50.826;4.712;2022-08-21T13:53:30;8.30;;;2.80;;
12363;SDS011;6246;50.826;4.712;2022-08-21T13:55:57;4.78;;;2.20;;
12363;SDS011;6246;50.826;4.712;2022-08-21T13:58:27;5.35;;;2.47;;
12363;SDS011;6246;50.826;4.712;2022-08-21T14:00:54;5.95;;;2.20;;
12363;SDS011;6246;50.826;4.712;2022-08-21T14:03:57;7.65;;;2.30;;
12363;SDS011;6246;50.826;4.712;2022-08-21T14:06:25;4.82;;;2.10;;
12363;SDS011;6246;50.826;4.712;2022-08-21T14:08:58;3.75;;;2.28;;
12363;SDS011;6246;50.826;4.712;2022-08-21T14:11:25;6.03;;;2.42;;
12363;SDS011;6246;50.826;4.712;2022-08-21T14:16:23;4.03;;;1.85;;
12363;SDS011;6246;50.826;4.712;2022-08-21T14:21:24;5.63;;;2.33;;
12363;SDS011;6246;50.826;4.712;2022-08-21T14:24:03;4.60;;;2.33;;
12363;SDS011;6246;50.826;4.712;2022-08-21T14:26:29;4.25;;;2.00;;
12363;SDS011;6246;50.826;4.712;2022-08-21T14:28:58;6.55;;;2.88;;
12363;SDS011;6246;50.826;4.712;2022-08-21T14:31:27;7.70;;;2.70;;
12363;SDS011;6246;50.826;4.712;2022-08-21T14:33:54;6.72;;;2.65;;
12363;SDS011;6246;50.826;4.712;2022-08-21T14:36:20;5.05;;;2.13;;
12363;SDS011;6246;50.826;4.712;2022-08-21T14:38:46;5.15;;;1.92;;
12363;SDS011;6246;50.826;4.712;2022-08-21T14:41:22;6.68;;;2.70;;
12363;SDS011;6246;50.826;4.712;2022-08-21T14:43:49;4.90;;;2.17;;
12363;SDS011;6246;50.826;4.712;2022-08-21T14:46:18;6.75;;;2.60;;
12363;SDS011;6246;50.826;4.712;2022-08-21T14:48:46;6.22;;;2.22;;
12363;SDS011;6246;50.826;4.712;2022-08-21T14:51:12;5.55;;;2.20;;
12363;SDS011;6246;50.826;4.712;2022-08-21T14:53:38;4.10;;;1.85;;
12363;SDS011;6246;50.826;4.712;2022-08-21T14:56:05;5.80;;;2.10;;
12363;SDS011;6246;50.826;4.712;2022-08-21T14:58:32;6.40;;;2.13;;
12363;SDS011;6246;50.826;4.712;2022-08-21T15:00:58;7.32;;;2.50;;
12363;SDS011;6246;50.826;4.712;2022-08-21T15:03:28;6.13;;;2.25;;
12363;SDS011;6246;50.826;4.712;2022-08-21T15:05:54;7.30;;;2.55;;
12363;SDS011;6246;50.826;4.712;2022-08-21T15:08:20;4.82;;;2.10;;
12363;SDS011;6246;50.826;4.712;2022-08-21T15:10:46;4.20;;;1.95;;
12363;SDS011;6246;50.826;4.712;2022-08-21T15:13:12;4.40;;;2.40;;
12363;SDS011;6246;50.826;4.712;2022-08-21T15:15:40;3.85;;;2.20;;
12363;SDS011;6246;50.826;4.712;2022-08-21T15:18:07;6.25;;;2.42;;
12363;SDS011;6246;50.826;4.712;2022-08-21T15:20:33;5.15;;;2.30;;
12363;SDS011;6246;50.826;4.712;2022-08-21T15:22:59;6.03;;;2.25;;
12363;SDS011;6246;50.826;4.712;2022-08-21T15:25:25;3.35;;;1.63;;
12363;SDS011;6246;50.826;4.712;2022-08-21T15:27:52;5.28;;;1.90;;
12363;SDS011;6246;50.826;4.712;2022-08-21T15:30:18;4.45;;;2.05;;
12363;SDS011;6246;50.826;4.712;2022-08-21T15:32:44;6.07;;;2.38;;
12363;SDS011;6246;50.826;4.712;2022-08-21T15:35:10;6.03;;;2.50;;
12363;SDS011;6246;50.826;4.712;2022-08-21T15:37:36;5.93;;;2.80;;
12363;SDS011;6246;50.826;4.712;2022-08-21T15:40:03;4.82;;;2.47;;
12363;SDS011;6246;50.826;4.712;2022-08-21T15:42:31;3.90;;;1.80;;
12363;SDS011;6246;50.826;4.712;2022-08-21T15:44:57;4.20;;;2.22;;
12363;SDS011;6246;50.826;4.712;2022-08-21T15:47:29;4.53;;;1.85;;
12363;SDS011;6246;50.826;4.712;2022-08-21T15:49:56;5.60;;;2.10;;
12363;SDS011;6246;50.826;4.712;2022-08-21T15:52:22;8.07;;;2.60;;
12363;SDS011;6246;50.826;4.712;2022-08-21T15:54:48;8.20;;;2.60;;
12363;SDS011;6246;50.826;4.712;2022-08-21T15:57:16;6.38;;;2.50;;
12363;SDS011;6246;50.826;4.712;2022-08-21T15:59:43;5.80;;;2.28;;
12363;SDS011;6246;50.826;4.712;2022-08-21T16:02:15;5.60;;;1.80;;
12363;SDS011;6246;50.826;4.712;2022-08-21T16:04:41;4.97;;;2.28;;
12363;SDS011;6246;50.826;4.712;2022-08-21T16:07:07;4.80;;;2.38;;
12363;SDS011;6246;50.826;4.712;2022-08-21T16:09:33;6.05;;;2.42;;
12363;SDS011;6246;50.826;4.712;2022-08-21T16:12:00;4.45;;;2.30;;
12363;SDS011;6246;50.826;4.712;2022-08-21T16:14:26;6.88;;;2.08;;
12363;SDS011;6246;50.826;4.712;2022-08-21T16:16:53;4.38;;;1.95;;
12363;SDS011;6246;50.826;4.712;2022-08-21T16:19:19;5.85;;;2.50;;
12363;SDS011;6246;50.826;4.712;2022-08-21T16:21:46;4.57;;;2.20;;
12363;SDS011;6246;50.826;4.712;2022-08-21T16:24:12;5.00;;;2.22;;
12363;SDS011;6246;50.826;4.712;2022-08-21T16:26:39;6.72;;;2.70;;
12363;SDS011;6246;50.826;4.712;2022-08-21T16:29:05;5.20;;;2.70;;
12363;SDS011;6246;50.826;4.712;2022-08-21T16:31:32;6.82;;;2.78;;
12363;SDS011;6246;50.826;4.712;2022-08-21T16:33:59;6.95;;;2.50;;